createdAt,value
2023-04-09T00:00:12.700Z,95217.00
2023-04-09T00:01:12.723Z,95215.00
2023-04-09T00:02:12.727Z,95213.00
2023-04-09T00:03:12.828Z,95215.00
2023-04-09T00:04:12.790Z,95219.00
2023-04-09T00:05:12.799Z,95219.00
2023-04-09T00:06:12.653Z,95215.00
2023-04-09T00:07:12.674Z,95215.00
2023-04-09T00:08:12.677Z,95213.00
2023-04-09T00:09:12.685Z,95215.00
2023-04-09T00:10:12.638Z,95217.00
2023-04-09T00:11:12.595Z,95215.00
2023-04-09T00:12:12.634Z,95215.00
2023-04-09T00:13:12.635Z,95215.00
2023-04-09T00:14:12.646Z,95219.00
2023-04-09T00:15:20.669Z,95219.00
2023-04-09T00:16:13.637Z,95215.00
2023-04-09T00:17:12.612Z,95217.00
2023-04-09T00:18:12.578Z,95219.00
2023-04-09T00:19:12.644Z,95215.00
2023-04-09T00:20:12.555Z,95213.00
2023-04-09T00:21:12.673Z,95213.00
2023-04-09T00:22:12.590Z,95213.00
2023-04-09T00:23:13.034Z,95213.00
2023-04-09T00:24:12.578Z,95207.00
2023-04-09T00:25:12.598Z,95215.00
2023-04-09T00:26:12.517Z,95211.00
2023-04-09T00:27:12.532Z,95213.00
2023-04-09T00:28:12.496Z,95211.00
2023-04-09T00:29:12.657Z,95211.00
2023-04-09T00:30:12.482Z,95209.00
2023-04-09T00:31:12.549Z,95209.00
2023-04-09T00:32:12.488Z,95207.00
2023-04-09T00:33:12.551Z,95207.00
2023-04-09T00:34:12.604Z,95209.00
2023-04-09T00:35:12.677Z,95205.00
2023-04-09T00:36:12.831Z,95201.00
2023-04-09T00:37:12.772Z,95201.00
2023-04-09T00:38:12.847Z,95203.00
2023-04-09T00:39:12.820Z,95203.00
2023-04-09T00:40:12.820Z,95203.00
2023-04-09T00:41:12.868Z,95207.00
2023-04-09T00:42:13.778Z,95205.00
2023-04-09T00:43:12.854Z,95205.00
2023-04-09T00:44:12.897Z,95207.00
2023-04-09T00:45:12.868Z,95207.00
2023-04-09T00:46:13.067Z,95205.00
2023-04-09T00:47:12.996Z,95207.00
2023-04-09T00:48:12.968Z,95209.00
2023-04-09T00:49:13.004Z,95209.00
2023-04-09T00:50:13.003Z,95209.00
2023-04-09T00:51:13.076Z,95211.00
2023-04-09T00:52:13.103Z,95209.00
2023-04-09T00:53:13.834Z,95207.00
2023-04-09T00:54:13.184Z,95211.00
2023-04-09T00:55:13.307Z,95209.00
2023-04-09T00:56:13.295Z,95207.00
2023-04-09T00:57:13.303Z,95211.00
2023-04-09T00:58:13.355Z,95213.00
2023-04-09T00:59:13.426Z,95211.00
2023-04-09T01:00:13.431Z,95215.00
2023-04-09T01:01:13.373Z,95213.00
2023-04-09T01:02:13.477Z,95217.00
2023-04-09T01:03:13.484Z,95217.00
2023-04-09T01:04:13.428Z,95217.00
2023-04-09T01:05:13.439Z,95215.00
2023-04-09T01:06:14.328Z,95219.00
2023-04-09T01:07:13.576Z,95217.00
2023-04-09T01:08:13.444Z,95217.00
2023-04-09T01:09:13.509Z,95215.00
2023-04-09T01:10:13.482Z,95215.00
2023-04-09T01:11:13.545Z,95213.00
2023-04-09T01:12:13.613Z,95217.00
2023-04-09T01:13:13.587Z,95217.00
2023-04-09T01:14:13.649Z,95215.00
2023-04-09T01:15:13.570Z,95217.00
2023-04-09T01:16:13.614Z,95215.00
2023-04-09T01:17:13.602Z,95219.00
2023-04-09T01:18:13.674Z,95217.00
2023-04-09T01:19:13.596Z,95213.00
2023-04-09T01:20:13.605Z,95215.00
2023-04-09T01:21:13.685Z,95213.00
2023-04-09T01:22:15.310Z,95215.00
2023-04-09T01:23:13.728Z,95215.00
2023-04-09T01:24:13.786Z,95215.00
2023-04-09T01:25:13.779Z,95215.00
2023-04-09T01:26:13.779Z,95215.00
2023-04-09T01:27:13.788Z,95215.00
2023-04-09T01:28:13.814Z,95217.00
2023-04-09T01:29:13.881Z,95219.00
2023-04-09T01:30:13.796Z,95217.00
2023-04-09T01:31:14.029Z,95219.00
2023-04-09T01:32:13.933Z,95221.00
2023-04-09T01:33:14.009Z,95217.00
2023-04-09T01:34:14.049Z,95217.00
2023-04-09T01:35:14.103Z,95217.00
2023-04-09T01:36:14.812Z,95219.00
2023-04-09T01:37:14.182Z,95221.00
2023-04-09T01:38:14.212Z,95217.00
2023-04-09T01:39:14.176Z,95219.00
2023-04-09T01:40:14.182Z,95217.00
2023-04-09T01:41:14.219Z,95221.00
2023-04-09T01:42:14.289Z,95219.00
2023-04-09T01:43:14.314Z,95219.00
2023-04-09T01:44:14.324Z,95217.00
2023-04-09T01:45:14.356Z,95217.00
2023-04-09T01:46:14.336Z,95213.00
2023-04-09T01:47:14.358Z,95219.00
2023-04-09T01:48:14.332Z,95215.00
2023-04-09T01:49:14.371Z,95217.00
2023-04-09T01:50:14.385Z,95219.00
2023-04-09T01:51:14.423Z,95219.00
2023-04-09T01:52:14.444Z,95217.00
2023-04-09T01:53:14.453Z,95219.00
2023-04-09T01:54:14.528Z,95219.00
2023-04-09T01:55:14.482Z,95223.00
2023-04-09T01:56:14.492Z,95223.00
2023-04-09T01:57:14.518Z,95225.00
2023-04-09T01:58:14.560Z,95221.00
2023-04-09T01:59:14.550Z,95223.00
2023-04-09T02:00:14.810Z,95223.00
2023-04-09T02:01:14.644Z,95223.00
2023-04-09T02:02:14.604Z,95223.00
2023-04-09T02:03:14.575Z,95221.00
2023-04-09T02:04:14.541Z,95221.00
2023-04-09T02:05:14.551Z,95219.00
2023-04-09T02:06:14.578Z,95227.00
2023-04-09T02:07:14.555Z,95221.00
2023-04-09T02:08:14.631Z,95221.00
2023-04-09T02:09:14.676Z,95223.00
2023-04-09T02:10:14.873Z,95221.00
2023-04-09T02:11:14.817Z,95225.00
2023-04-09T02:12:14.852Z,95221.00
2023-04-09T02:13:14.905Z,95223.00
2023-04-09T02:14:14.977Z,95225.00
2023-04-09T02:15:15.047Z,95225.00
2023-04-09T02:16:15.140Z,95223.00
2023-04-09T02:17:15.076Z,95223.00
2023-04-09T02:18:15.120Z,95221.00
2023-04-09T02:19:15.402Z,95223.00
2023-04-09T02:20:15.139Z,95223.00
2023-04-09T02:21:15.165Z,95221.00
2023-04-09T02:22:15.219Z,95221.00
2023-04-09T02:23:15.248Z,95221.00
2023-04-09T02:24:15.323Z,95225.00
2023-04-09T02:25:15.341Z,95219.00
2023-04-09T02:26:15.408Z,95219.00
2023-04-09T02:27:15.445Z,95223.00
2023-04-09T02:28:15.541Z,95219.00
2023-04-09T02:29:15.580Z,95221.00
2023-04-09T02:30:15.604Z,95221.00
2023-04-09T02:31:15.657Z,95223.00
2023-04-09T02:32:15.643Z,95219.00
2023-04-09T02:33:15.734Z,95223.00
2023-04-09T02:34:15.729Z,95225.00
2023-04-09T02:35:15.772Z,95227.00
2023-04-09T02:36:15.826Z,95227.00
2023-04-09T02:37:15.864Z,95231.00
2023-04-09T02:38:15.955Z,95227.00
2023-04-09T02:39:16.316Z,95225.00
2023-04-09T02:40:16.038Z,95225.00
2023-04-09T02:41:16.072Z,95229.00
2023-04-09T02:42:16.168Z,95223.00
2023-04-09T02:43:16.209Z,95223.00
2023-04-09T02:44:22.887Z,95225.00
2023-04-09T02:45:16.220Z,95225.00
2023-04-09T02:46:16.263Z,95223.00
2023-04-09T02:47:16.242Z,95223.00
2023-04-09T02:48:16.217Z,95225.00
2023-04-09T02:49:16.161Z,95223.00
2023-04-09T02:50:16.163Z,95223.00
2023-04-09T02:51:16.201Z,95221.00
2023-04-09T02:52:16.165Z,95221.00
2023-04-09T02:53:16.164Z,95219.00
2023-04-09T02:54:16.369Z,95217.00
2023-04-09T02:55:16.499Z,95217.00
2023-04-09T02:56:16.791Z,95217.00
2023-04-09T02:57:16.117Z,95217.00
2023-04-09T02:58:16.114Z,95217.00
2023-04-09T02:59:17.306Z,95217.00
2023-04-09T03:00:16.149Z,95217.00
2023-04-09T03:01:16.123Z,95217.00
2023-04-09T03:02:16.243Z,95219.00
2023-04-09T03:03:16.149Z,95219.00
2023-04-09T03:04:16.345Z,95215.00
2023-04-09T03:05:16.172Z,95215.00
2023-04-09T03:06:16.057Z,95217.00
2023-04-09T03:07:16.023Z,95215.00
2023-04-09T03:08:16.045Z,95213.00
2023-04-09T03:09:16.060Z,95219.00
2023-04-09T03:10:16.031Z,95219.00
2023-04-09T03:11:16.016Z,95215.00
2023-04-09T03:12:16.036Z,95215.00
2023-04-09T03:13:15.992Z,95213.00
2023-04-09T03:14:16.000Z,95213.00
2023-04-09T03:15:16.027Z,95213.00
2023-04-09T03:16:16.049Z,95207.00
2023-04-09T03:17:15.960Z,95211.00
2023-04-09T03:18:15.971Z,95211.00
2023-04-09T03:19:16.371Z,95215.00
2023-04-09T03:20:16.014Z,95213.00
2023-04-09T03:21:15.976Z,95211.00
2023-04-09T03:22:15.947Z,95211.00
2023-04-09T03:23:15.970Z,95211.00
2023-04-09T03:24:16.093Z,95211.00
2023-04-09T03:25:16.008Z,95213.00
2023-04-09T03:26:15.914Z,95211.00
2023-04-09T03:27:15.941Z,95213.00
2023-04-09T03:28:15.917Z,95213.00
2023-04-09T03:29:15.875Z,95213.00
2023-04-09T03:30:15.952Z,95213.00
2023-04-09T03:31:16.456Z,95209.00
2023-04-09T03:32:18.562Z,95211.00
2023-04-09T03:33:15.891Z,95207.00
2023-04-09T03:34:15.869Z,95209.00
2023-04-09T03:35:15.896Z,95211.00
2023-04-09T03:36:17.386Z,95211.00
2023-04-09T03:37:15.823Z,95213.00
2023-04-09T03:38:15.836Z,95211.00
2023-04-09T03:39:15.866Z,95209.00
2023-04-09T03:40:15.873Z,95205.00
2023-04-09T03:41:15.850Z,95209.00
2023-04-09T03:42:15.817Z,95209.00
2023-04-09T03:43:15.843Z,95213.00
2023-04-09T03:44:15.799Z,95211.00
2023-04-09T03:45:15.932Z,95211.00
2023-04-09T03:46:15.845Z,95209.00
2023-04-09T03:47:15.802Z,95213.00
2023-04-09T03:48:15.773Z,95213.00
2023-04-09T03:49:15.796Z,95207.00
2023-04-09T03:50:16.321Z,95207.00
2023-04-09T03:51:16.346Z,95209.00
2023-04-09T03:52:15.745Z,95209.00
2023-04-09T03:53:15.765Z,95207.00
2023-04-09T03:54:16.876Z,95207.00
2023-04-09T03:55:18.363Z,95209.00
2023-04-09T03:56:15.723Z,95209.00
2023-04-09T03:57:15.808Z,95209.00
2023-04-09T03:58:15.709Z,95213.00
2023-04-09T03:59:15.760Z,95213.00
2023-04-09T04:00:15.717Z,95217.00
2023-04-09T04:01:15.702Z,95215.00
2023-04-09T04:02:15.846Z,95217.00
2023-04-09T04:03:16.615Z,95217.00
2023-04-09T04:04:15.831Z,95217.00
2023-04-09T04:05:15.681Z,95221.00
2023-04-09T04:06:15.758Z,95221.00
2023-04-09T04:07:15.658Z,95219.00
2023-04-09T04:08:15.629Z,95221.00
2023-04-09T04:09:15.704Z,95219.00
2023-04-09T04:10:15.616Z,95223.00
2023-04-09T04:11:15.638Z,95225.00
2023-04-09T04:12:15.608Z,95223.00
2023-04-09T04:13:16.424Z,95225.00
2023-04-09T04:14:18.405Z,95225.00
2023-04-09T04:15:15.612Z,95227.00
2023-04-09T04:16:15.626Z,95225.00
2023-04-09T04:17:15.605Z,95227.00
2023-04-09T04:18:15.626Z,95229.00
2023-04-09T04:19:15.886Z,95229.00
2023-04-09T04:20:15.544Z,95231.00
2023-04-09T04:21:16.351Z,95227.00
2023-04-09T04:22:15.684Z,95227.00
2023-04-09T04:23:15.559Z,95227.00
2023-04-09T04:24:15.573Z,95231.00
2023-04-09T04:25:15.545Z,95227.00
2023-04-09T04:26:15.598Z,95227.00
2023-04-09T04:27:15.526Z,95227.00
2023-04-09T04:28:15.537Z,95231.00
2023-04-09T04:29:15.513Z,95233.00
2023-04-09T04:30:16.349Z,95231.00
2023-04-09T04:31:15.519Z,95227.00
2023-04-09T04:32:15.517Z,95231.00
2023-04-09T04:33:15.483Z,95231.00
2023-04-09T04:34:15.856Z,95233.00
2023-04-09T04:35:15.467Z,95231.00
2023-04-09T04:36:15.536Z,95231.00
2023-04-09T04:37:15.470Z,95231.00
2023-04-09T04:38:15.475Z,95236.00
2023-04-09T04:39:15.436Z,95233.00
2023-04-09T04:40:15.419Z,95236.00
2023-04-09T04:41:15.429Z,95235.00
2023-04-09T04:42:16.380Z,95238.00
2023-04-09T04:43:15.466Z,95236.00
2023-04-09T04:44:15.380Z,95236.00
2023-04-09T04:45:15.401Z,95238.00
2023-04-09T04:46:15.484Z,95238.00
2023-04-09T04:47:15.484Z,95240.00
2023-04-09T04:48:15.408Z,95240.00
2023-04-09T04:49:15.895Z,95240.00
2023-04-09T04:50:15.346Z,95238.00
2023-04-09T04:51:15.370Z,95240.00
2023-04-09T04:52:16.667Z,95240.00
2023-04-09T04:53:15.394Z,95240.00
2023-04-09T04:54:15.974Z,95242.00
2023-04-09T04:55:18.406Z,95246.00
2023-04-09T04:56:15.405Z,95242.00
2023-04-09T04:57:15.422Z,95244.00
2023-04-09T04:58:15.390Z,95242.00
2023-04-09T04:59:16.020Z,95248.00
2023-04-09T05:00:15.429Z,95244.00
2023-04-09T05:01:15.502Z,95246.00
2023-04-09T05:02:15.397Z,95246.00
2023-04-09T05:03:16.508Z,95246.00
2023-04-09T05:04:15.445Z,95244.00
2023-04-09T05:05:15.331Z,95248.00
2023-04-09T05:06:17.842Z,95248.00
2023-04-09T05:07:16.481Z,95246.00
2023-04-09T05:08:15.571Z,95248.00
2023-04-09T05:09:15.947Z,95250.00
2023-04-09T05:10:15.561Z,95252.00
2023-04-09T05:11:15.573Z,95250.00
2023-04-09T05:12:15.665Z,95256.00
2023-04-09T05:13:15.620Z,95254.00
2023-04-09T05:14:15.675Z,95252.00
2023-04-09T05:15:15.741Z,95252.00
2023-04-09T05:16:15.683Z,95250.00
2023-04-09T05:17:15.735Z,95250.00
2023-04-09T05:18:15.791Z,95252.00
2023-04-09T05:19:15.838Z,95252.00
2023-04-09T05:20:15.815Z,95252.00
2023-04-09T05:21:15.821Z,95256.00
2023-04-09T05:22:15.885Z,95256.00
2023-04-09T05:23:16.873Z,95256.00
2023-04-09T05:24:16.024Z,95258.00
2023-04-09T05:25:16.093Z,95258.00
2023-04-09T05:26:16.267Z,95258.00
2023-04-09T05:27:16.965Z,95254.00
2023-04-09T05:28:16.223Z,95258.00
2023-04-09T05:29:16.220Z,95258.00
2023-04-09T05:30:16.282Z,95258.00
2023-04-09T05:31:16.388Z,95258.00
2023-04-09T05:32:16.319Z,95258.00
2023-04-09T05:33:16.387Z,95260.00
2023-04-09T05:34:16.436Z,95260.00
2023-04-09T05:35:16.484Z,95262.00
2023-04-09T05:36:16.458Z,95262.00
2023-04-09T05:37:16.465Z,95264.00
2023-04-09T05:38:16.585Z,95264.00
2023-04-09T05:39:16.668Z,95262.00
2023-04-09T05:40:16.631Z,95264.00
2023-04-09T05:41:16.712Z,95264.00
2023-04-09T05:42:16.784Z,95264.00
2023-04-09T05:43:16.749Z,95264.00
2023-04-09T05:44:16.826Z,95262.00
2023-04-09T05:45:16.908Z,95264.00
2023-04-09T05:46:16.947Z,95264.00
2023-04-09T05:47:16.961Z,95264.00
2023-04-09T05:48:17.015Z,95262.00
2023-04-09T05:49:16.984Z,95266.00
2023-04-09T05:50:16.976Z,95266.00
2023-04-09T05:51:16.993Z,95266.00
2023-04-09T05:52:17.106Z,95270.00
2023-04-09T05:53:17.049Z,95266.00
2023-04-09T05:54:17.040Z,95270.00
2023-04-09T05:55:17.089Z,95270.00
2023-04-09T05:56:17.156Z,95268.00
2023-04-09T05:57:18.391Z,95272.00
2023-04-09T05:58:17.179Z,95268.00
2023-04-09T05:59:17.977Z,95270.00
2023-04-09T06:00:17.117Z,95272.00
2023-04-09T06:01:17.199Z,95270.00
2023-04-09T06:02:17.359Z,95274.00
2023-04-09T06:03:17.401Z,95278.00
2023-04-09T06:04:17.450Z,95278.00
2023-04-09T06:05:17.368Z,95278.00
2023-04-09T06:06:17.308Z,95278.00
2023-04-09T06:07:17.300Z,95278.00
2023-04-09T06:08:17.906Z,95278.00
2023-04-09T06:09:17.380Z,95278.00
2023-04-09T06:10:17.445Z,95280.00
2023-04-09T06:11:17.447Z,95278.00
2023-04-09T06:12:18.470Z,95278.00
2023-04-09T06:13:17.627Z,95278.00
2023-04-09T06:14:17.656Z,95280.00
2023-04-09T06:15:17.660Z,95280.00
2023-04-09T06:16:17.851Z,95280.00
2023-04-09T06:17:18.424Z,95280.00
2023-04-09T06:18:17.870Z,95282.00
2023-04-09T06:19:18.885Z,95282.00
2023-04-09T06:20:17.986Z,95282.00
2023-04-09T06:21:18.078Z,95283.00
2023-04-09T06:22:18.099Z,95285.00
2023-04-09T06:23:18.268Z,95287.00
2023-04-09T06:24:18.134Z,95285.00
2023-04-09T06:25:18.185Z,95283.00
2023-04-09T06:26:18.296Z,95289.00
2023-04-09T06:27:18.293Z,95283.00
2023-04-09T06:28:18.360Z,95287.00
2023-04-09T06:29:18.902Z,95285.00
2023-04-09T06:30:18.341Z,95291.00
2023-04-09T06:31:18.394Z,95289.00
2023-04-09T06:32:18.331Z,95291.00
2023-04-09T06:33:18.439Z,95291.00
2023-04-09T06:34:18.427Z,95293.00
2023-04-09T06:35:18.439Z,95289.00
2023-04-09T06:36:18.439Z,95293.00
2023-04-09T06:37:18.403Z,95293.00
2023-04-09T06:38:18.447Z,95291.00
2023-04-09T06:39:18.481Z,95293.00
2023-04-09T06:40:22.215Z,95291.00
2023-04-09T06:41:18.566Z,95291.00
2023-04-09T06:42:18.575Z,95293.00
2023-04-09T06:43:18.599Z,95293.00
2023-04-09T06:44:18.455Z,95291.00
2023-04-09T06:45:18.480Z,95295.00
2023-04-09T06:46:18.843Z,95293.00
2023-04-09T06:47:18.409Z,95293.00
2023-04-09T06:48:18.448Z,95293.00
2023-04-09T06:49:18.464Z,95295.00
2023-04-09T06:50:18.395Z,95291.00
2023-04-09T06:51:18.389Z,95295.00
2023-04-09T06:52:18.399Z,95295.00
2023-04-09T06:53:18.428Z,95297.00
2023-04-09T06:54:18.404Z,95297.00
2023-04-09T06:55:18.402Z,95295.00
2023-04-09T06:56:18.419Z,95297.00
2023-04-09T06:57:18.364Z,95295.00
2023-04-09T06:58:18.377Z,95299.00
2023-04-09T06:59:18.436Z,95295.00
2023-04-09T07:00:18.395Z,95299.00
2023-04-09T07:01:19.501Z,95299.00
2023-04-09T07:02:18.548Z,95299.00
2023-04-09T07:03:18.622Z,95303.00
2023-04-09T07:04:18.641Z,95301.00
2023-04-09T07:05:18.569Z,95301.00
2023-04-09T07:06:18.632Z,95297.00
2023-04-09T07:07:18.722Z,95299.00
2023-04-09T07:08:18.717Z,95299.00
2023-04-09T07:09:18.781Z,95301.00
2023-04-09T07:10:18.789Z,95301.00
2023-04-09T07:11:18.858Z,95301.00
2023-04-09T07:12:18.935Z,95301.00
2023-04-09T07:13:18.903Z,95303.00
2023-04-09T07:14:18.909Z,95303.00
2023-04-09T07:15:18.940Z,95305.00
2023-04-09T07:16:19.060Z,95303.00
2023-04-09T07:17:19.032Z,95305.00
2023-04-09T07:18:19.079Z,95305.00
2023-04-09T07:19:19.150Z,95307.00
2023-04-09T07:20:19.138Z,95311.00
2023-04-09T07:21:19.258Z,95309.00
2023-04-09T07:22:19.223Z,95307.00
2023-04-09T07:23:19.292Z,95311.00
2023-04-09T07:24:19.311Z,95313.00
2023-04-09T07:25:19.392Z,95309.00
2023-04-09T07:26:19.354Z,95311.00
2023-04-09T07:27:19.426Z,95313.00
2023-04-09T07:28:20.614Z,95313.00
2023-04-09T07:29:19.459Z,95311.00
2023-04-09T07:30:19.534Z,95309.00
2023-04-09T07:31:19.730Z,95311.00
2023-04-09T07:32:20.531Z,95311.00
2023-04-09T07:33:19.835Z,95311.00
2023-04-09T07:34:19.800Z,95307.00
2023-04-09T07:35:19.774Z,95309.00
2023-04-09T07:36:19.824Z,95309.00
2023-04-09T07:37:20.010Z,95313.00
2023-04-09T07:38:19.989Z,95313.00
2023-04-09T07:39:20.002Z,95315.00
2023-04-09T07:40:20.012Z,95315.00
2023-04-09T07:41:20.087Z,95313.00
2023-04-09T07:42:20.059Z,95313.00
2023-04-09T07:43:21.432Z,95313.00
2023-04-09T07:44:20.144Z,95313.00
2023-04-09T07:45:20.147Z,95315.00
2023-04-09T07:46:20.275Z,95313.00
2023-04-09T07:47:20.178Z,95313.00
2023-04-09T07:48:20.333Z,95313.00
2023-04-09T07:49:20.288Z,95315.00
2023-04-09T07:50:20.352Z,95319.00
2023-04-09T07:51:20.324Z,95313.00
2023-04-09T07:52:20.280Z,95313.00
2023-04-09T07:53:20.320Z,95315.00
2023-04-09T07:54:20.376Z,95315.00
2023-04-09T07:55:20.460Z,95315.00
2023-04-09T07:56:20.531Z,95315.00
2023-04-09T07:57:20.491Z,95315.00
2023-04-09T07:58:20.559Z,95315.00
2023-04-09T07:59:20.693Z,95315.00
2023-04-09T08:00:20.600Z,95317.00
2023-04-09T08:01:20.630Z,95317.00
2023-04-09T08:02:20.667Z,95317.00
2023-04-09T08:03:20.858Z,95317.00
2023-04-09T08:04:20.880Z,95321.00
2023-04-09T08:05:20.786Z,95317.00
2023-04-09T08:06:20.788Z,95317.00
2023-04-09T08:07:20.775Z,95317.00
2023-04-09T08:08:20.798Z,95317.00
2023-04-09T08:09:20.818Z,95313.00
2023-04-09T08:10:20.829Z,95313.00
2023-04-09T08:11:20.902Z,95311.00
2023-04-09T08:12:20.869Z,95311.00
2023-04-09T08:13:20.888Z,95309.00
2023-04-09T08:14:20.907Z,95309.00
2023-04-09T08:15:20.977Z,95307.00
2023-04-09T08:16:20.949Z,95305.00
2023-04-09T08:17:21.077Z,95307.00
2023-04-09T08:18:20.987Z,95305.00
2023-04-09T08:19:21.053Z,95307.00
2023-04-09T08:20:21.097Z,95307.00
2023-04-09T08:21:21.085Z,95311.00
2023-04-09T08:22:21.982Z,95309.00
2023-04-09T08:23:21.177Z,95305.00
2023-04-09T08:24:21.150Z,95307.00
2023-04-09T08:25:21.169Z,95307.00
2023-04-09T08:26:21.230Z,95309.00
2023-04-09T08:27:21.205Z,95313.00
2023-04-09T08:28:21.273Z,95311.00
2023-04-09T08:29:21.335Z,95313.00
2023-04-09T08:30:21.266Z,95311.00
2023-04-09T08:31:21.405Z,95311.00
2023-04-09T08:32:21.370Z,95313.00
2023-04-09T08:33:21.470Z,95315.00
2023-04-09T08:34:21.440Z,95317.00
2023-04-09T08:35:22.452Z,95313.00
2023-04-09T08:36:21.498Z,95313.00
2023-04-09T08:37:21.500Z,95313.00
2023-04-09T08:38:24.473Z,95313.00
2023-04-09T08:39:21.583Z,95315.00
2023-04-09T08:40:22.509Z,95317.00
2023-04-09T08:41:21.599Z,95317.00
2023-04-09T08:42:21.588Z,95315.00
2023-04-09T08:44:25.882Z,95315.00
2023-04-09T08:45:21.720Z,95315.00
2023-04-09T08:46:21.694Z,95317.00
2023-04-09T08:47:21.693Z,95313.00
2023-04-09T08:48:22.682Z,95311.00
2023-04-09T08:49:21.612Z,95311.00
2023-04-09T08:50:21.650Z,95311.00
2023-04-09T08:51:22.432Z,95311.00
2023-04-09T08:52:21.686Z,95315.00
2023-04-09T08:53:21.545Z,95311.00
2023-04-09T08:54:22.019Z,95311.00
2023-04-09T08:55:22.457Z,95311.00
2023-04-09T08:56:21.549Z,95309.00
2023-04-09T08:57:21.514Z,95311.00
2023-04-09T08:58:22.451Z,95307.00
2023-04-09T08:59:24.468Z,95309.00
2023-04-09T09:00:21.649Z,95309.00
2023-04-09T09:01:21.559Z,95311.00
2023-04-09T09:02:21.635Z,95313.00
2023-04-09T09:03:21.603Z,95313.00
2023-04-09T09:04:21.705Z,95311.00
2023-04-09T09:05:21.554Z,95307.00
2023-04-09T09:06:21.471Z,95307.00
2023-04-09T09:07:21.586Z,95305.00
2023-04-09T09:08:21.459Z,95305.00
2023-04-09T09:09:21.526Z,95305.00
2023-04-09T09:10:21.472Z,95307.00
2023-04-09T09:11:21.456Z,95307.00
2023-04-09T09:12:21.426Z,95305.00
2023-04-09T09:13:21.451Z,95303.00
2023-04-09T09:14:21.410Z,95307.00
2023-04-09T09:15:21.422Z,95309.00
2023-04-09T09:16:21.428Z,95303.00
2023-04-09T09:17:21.503Z,95301.00
2023-04-09T09:18:21.533Z,95301.00
2023-04-09T09:19:21.424Z,95297.00
2023-04-09T09:20:21.372Z,95299.00
2023-04-09T09:21:21.347Z,95297.00
2023-04-09T09:22:21.444Z,95297.00
2023-04-09T09:23:21.357Z,95295.00
2023-04-09T09:24:21.386Z,95291.00
2023-04-09T09:25:21.408Z,95291.00
2023-04-09T09:26:21.314Z,95289.00
2023-04-09T09:27:21.463Z,95289.00
2023-04-09T09:28:21.344Z,95285.00
2023-04-09T09:29:21.321Z,95285.00
2023-04-09T09:30:21.281Z,95280.00
2023-04-09T09:31:21.408Z,95282.00
2023-04-09T09:32:21.275Z,95282.00
2023-04-09T09:33:21.293Z,95283.00
2023-04-09T09:34:21.266Z,95287.00
2023-04-09T09:35:21.293Z,95285.00
2023-04-09T09:36:21.244Z,95280.00
2023-04-09T09:37:21.926Z,95282.00
2023-04-09T09:38:21.233Z,95280.00
2023-04-09T09:39:21.979Z,95278.00
2023-04-09T09:40:21.228Z,95280.00
2023-04-09T09:41:21.241Z,95280.00
2023-04-09T09:42:21.213Z,95276.00
2023-04-09T09:43:21.272Z,95276.00
2023-04-09T09:44:21.242Z,95276.00
2023-04-09T09:45:21.466Z,95276.00
2023-04-09T09:46:21.231Z,95276.00
2023-04-09T09:47:21.217Z,95276.00
2023-04-09T09:48:21.168Z,95276.00
2023-04-09T09:49:25.943Z,95272.00
2023-04-09T09:50:21.162Z,95272.00
2023-04-09T09:51:21.181Z,95268.00
2023-04-09T09:52:21.905Z,95270.00
2023-04-09T09:53:21.158Z,95266.00
2023-04-09T09:54:21.123Z,95268.00
2023-04-09T09:55:21.155Z,95268.00
2023-04-09T09:56:21.169Z,95268.00
2023-04-09T09:57:21.153Z,95266.00
2023-04-09T09:58:21.082Z,95264.00
2023-04-09T09:59:21.150Z,95266.00
2023-04-09T10:00:22.093Z,95266.00
2023-04-09T10:01:21.408Z,95262.00
2023-04-09T10:02:21.483Z,95264.00
2023-04-09T10:03:21.446Z,95266.00
2023-04-09T10:04:21.489Z,95262.00
2023-04-09T10:05:21.480Z,95256.00
2023-04-09T10:06:21.504Z,95256.00
2023-04-09T10:07:21.606Z,95256.00
2023-04-09T10:08:21.657Z,95256.00
2023-04-09T10:09:21.657Z,95254.00
2023-04-09T10:10:21.935Z,95254.00
2023-04-09T10:11:21.742Z,95256.00
2023-04-09T10:12:21.813Z,95248.00
2023-04-09T10:13:21.834Z,95248.00
2023-04-09T10:14:21.931Z,95250.00
2023-04-09T10:15:22.948Z,95248.00
2023-04-09T10:16:22.078Z,95250.00
2023-04-09T10:17:22.060Z,95244.00
2023-04-09T10:18:22.076Z,95244.00
2023-04-09T10:19:22.104Z,95242.00
2023-04-09T10:20:22.118Z,95244.00
2023-04-09T10:21:22.912Z,95236.00
2023-04-09T10:22:22.257Z,95238.00
2023-04-09T10:23:22.275Z,95238.00
2023-04-09T10:24:22.303Z,95233.00
2023-04-09T10:25:22.362Z,95233.00
2023-04-09T10:26:22.387Z,95235.00
2023-04-09T10:27:22.400Z,95233.00
2023-04-09T10:28:22.477Z,95231.00
2023-04-09T10:29:22.486Z,95233.00
2023-04-09T10:30:22.505Z,95229.00
2023-04-09T10:31:22.535Z,95229.00
2023-04-09T10:32:22.609Z,95225.00
2023-04-09T10:33:22.620Z,95227.00
2023-04-09T10:34:22.688Z,95223.00
2023-04-09T10:35:22.703Z,95221.00
2023-04-09T10:36:22.785Z,95225.00
2023-04-09T10:37:22.762Z,95221.00
2023-04-09T10:38:22.713Z,95221.00
2023-04-09T10:39:22.838Z,95223.00
2023-04-09T10:40:22.747Z,95219.00
2023-04-09T10:41:22.818Z,95223.00
2023-04-09T10:42:22.833Z,95223.00
2023-04-09T10:43:22.873Z,95219.00
2023-04-09T10:44:23.475Z,95219.00
2023-04-09T10:45:22.945Z,95217.00
2023-04-09T10:46:24.947Z,95217.00
2023-04-09T10:47:23.986Z,95207.00
2023-04-09T10:48:23.050Z,95209.00
2023-04-09T10:49:23.120Z,95211.00
2023-04-09T10:50:24.153Z,95209.00
2023-04-09T10:51:23.162Z,95211.00
2023-04-09T10:52:24.002Z,95209.00
2023-04-09T10:53:23.270Z,95203.00
2023-04-09T10:54:23.278Z,95207.00
2023-04-09T10:55:23.293Z,95207.00
2023-04-09T10:56:23.373Z,95207.00
2023-04-09T10:57:23.424Z,95205.00
2023-04-09T10:58:23.441Z,95203.00
2023-04-09T10:59:23.407Z,95203.00
2023-04-09T11:00:26.957Z,95203.00
2023-04-09T11:01:23.634Z,95203.00
2023-04-09T11:02:23.648Z,95205.00
2023-04-09T11:03:23.664Z,95207.00
2023-04-09T11:04:23.486Z,95201.00
2023-04-09T11:05:23.425Z,95201.00
2023-04-09T11:06:23.438Z,95201.00
2023-04-09T11:07:23.404Z,95195.00
2023-04-09T11:08:23.433Z,95195.00
2023-04-09T11:09:23.391Z,95193.00
2023-04-09T11:10:23.411Z,95193.00
2023-04-09T11:11:23.378Z,95197.00
2023-04-09T11:12:23.468Z,95201.00
2023-04-09T11:13:23.362Z,95195.00
2023-04-09T11:14:23.382Z,95193.00
2023-04-09T11:15:23.506Z,95195.00
2023-04-09T11:16:24.643Z,95191.00
2023-04-09T11:17:23.580Z,95195.00
2023-04-09T11:18:24.938Z,95193.00
2023-04-09T11:19:23.413Z,95188.00
2023-04-09T11:20:23.538Z,95189.00
2023-04-09T11:21:23.357Z,95186.00
2023-04-09T11:22:23.376Z,95184.00
2023-04-09T11:23:23.291Z,95188.00
2023-04-09T11:24:23.362Z,95188.00
2023-04-09T11:25:23.272Z,95191.00
2023-04-09T11:26:23.344Z,95191.00
2023-04-09T11:27:23.266Z,95191.00
2023-04-09T11:28:23.281Z,95186.00
2023-04-09T11:29:23.353Z,95184.00
2023-04-09T11:30:23.278Z,95184.00
2023-04-09T11:31:23.469Z,95182.00
2023-04-09T11:32:23.274Z,95186.00
2023-04-09T11:33:23.223Z,95184.00
2023-04-09T11:34:23.291Z,95188.00
2023-04-09T11:35:23.361Z,95180.00
2023-04-09T11:36:24.038Z,95180.00
2023-04-09T11:37:23.392Z,95182.00
2023-04-09T11:38:23.414Z,95184.00
2023-04-09T11:39:23.497Z,95182.00
2023-04-09T11:40:23.607Z,95180.00
2023-04-09T11:41:23.653Z,95178.00
2023-04-09T11:42:23.592Z,95178.00
2023-04-09T11:43:23.708Z,95182.00
2023-04-09T11:44:23.631Z,95176.00
2023-04-09T11:45:23.733Z,95180.00